• Join FlightAware (Why Join?)
  • Login
  • US Flag GB Flag 
04:31 EDT


 

Airport Tracker/Info


-or-


 

Live Flight TrackerFlight Track Log ✈ EJA831 ✈ 03-May-2013 ✈ KBDL - KUGN

Flight Track Log - Related Links

Times and Time Zones

All times are in EDT time to prevent confusion due to time zone crossing. See the EJA831 flight status page for this flight to view local times or setup timezone preferences in your user account.

Time Position Orientation Groundspeed Altitude Reporting Facility
EDT Latitude Longitude Course Direction KTS MPH feet Rate Location/Type
16:04 41.9500 -72.6717 60° Northeast 184 212 1,200  Level Boston Center
16:04 41.9689 -72.6272 60° Northeast 199 229 3,900 4,200 Climbing Boston Center
16:05 42.0022 -72.5908 39° Northeast 217 250 7,500 3,300 Climbing Boston Center
16:06 42.0606 -72.6497 323° Northwest 251 289 9,800 2,220 Climbing Boston Center
16:07 42.1186 -72.7256 316° Northwest 311 358 12,000 2,700 Climbing Boston Center
16:08 42.1956 -72.8239 317° Northwest 331 381 15,300 3,000 Climbing Boston Center
16:09 42.2556 -72.9031 316° Northwest 336 387 18,100 2,700 Climbing Boston Center
16:10 42.3344 -72.9794 324° Northwest 324 373 20,800 2,400 Climbing Boston Center
16:11 42.4136 -73.0136 342° North 306 352 22,900 2,280 Climbing Boston Center
16:12 42.4947 -73.0567 339° North 311 358 25,400 2,040 Climbing Boston Center
16:13 42.5756 -73.1083 335° Northwest 317 365 27,000 780 Climbing Boston Center
16:14 42.6036 -73.2750 283° West 344 396 27,000  Level Boston Center
16:15 42.6108 -73.4303 274° West 370 426 27,000  Level Boston Center
16:16 42.6156 -73.5883 272° West 401 461 27,000  Level Boston Center
16:17 42.6200 -73.7492 272° West 420 483 27,100 840 Climbing Boston Center
16:18 42.6264 -73.9047 273° West 425 489 28,700 1,500 Climbing Boston Center
16:19 42.6328 -74.0600 273° West 420 483 30,200 1,500 Climbing Boston Center
16:20 42.6389 -74.2097 273° West 414 476 31,700 1,500 Climbing Boston Center
16:21 42.6867 -74.3353 297° West 381 438 33,200 1,500 Climbing Boston Center
16:22 42.7433 -74.4475 305° West 368 423 34,700 1,380 Climbing Boston Center
16:23 42.7975 -74.5594 303° West 368 423 36,000 1,080 Climbing Boston Center
16:24 42.8369 -74.6825 294° West 363 418 36,900 900 Climbing Boston Center
16:25 42.8444 -74.8244 274° West 363 418 37,800 900 Climbing Boston Center
16:26 42.8453 -74.9689 270° West 376 433 38,700 900 Climbing Boston Center
16:27 42.8464 -75.1106 271° West 381 438 39,600 780 Climbing Boston Center
16:28 42.8494 -75.2383 272° West 381 438 40,300 720 Climbing Boston Center
16:29 42.8500 -75.3800 270° West 381 438 41,100 780 Climbing Boston Center
16:30 42.8528 -75.5189 272° West 381 438 41,900 720 Climbing Boston Center
16:31 42.8550 -75.6606 271° West 376 433 42,600 600 Climbing Boston Center
16:32 42.8553 -75.7994 270° West 376 433 43,100 60 Climbing Boston Center
16:35 42.8572 -76.1672 271° West 377 434 43,000 -60 Descending Cleveland Center
16:36 42.8589 -76.3172 271° West 390 449 43,000  Level Cleveland Center
16:37 42.8581 -76.4703 270° West 395 455 43,000  Level Cleveland Center
16:38 42.8569 -76.6206 269° West 400 460 43,000  Level Cleveland Center
16:39 42.8581 -76.7706 271° West 406 467 43,000  Level Cleveland Center
16:40 42.8586 -76.9236 270° West 406 467 43,000  Level Cleveland Center
16:41 42.8592 -77.0736 270° West 406 467 43,000  Level Cleveland Center
16:42 42.8575 -77.2267 269° West 406 467 43,000  Level Cleveland Center
16:43 42.8575 -77.3769 270° West 406 467 43,000  Level Cleveland Center
16:44 42.8575 -77.5269 270° West 406 467 43,000  Level Cleveland Center
16:45 42.8572 -77.6800 270° West 406 467 43,000  Level Cleveland Center
16:46 42.8547 -77.8331 269° West 406 467 43,000  Level Cleveland Center
16:47 42.8497 -77.9806 267° West 401 461 43,000  Level Cleveland Center
16:48 42.8425 -78.1253 266° West 401 461 43,000  Level Cleveland Center
16:49 42.8372 -78.2700 267° West 396 456 43,000  Level Cleveland Center
16:50 42.8317 -78.4144 267° West 390 449 43,000  Level Cleveland Center
16:51 42.8261 -78.5647 267° West 390 449 43,000  Level Cleveland Center
16:52 42.8203 -78.7094 267° West 385 443 43,000  Level Cleveland Center
16:53 42.8142 -78.8539 267° West 385 443 43,000  Level Cleveland Center
16:54 42.8078 -78.9983 267° West 385 443 43,000  Level Cleveland Center
16:55 42.8056 -79.1428 269° West 385 443 43,000  Level Cleveland Center
16:56 42.7947 -79.2931 264° West 390 449 43,000  Level Cleveland Center
16:57 42.7881 -79.4347 266° West 390 449 43,000  Level Cleveland Center
16:58 42.7789 -79.5819 265° West 390 449 43,000  Level Cleveland Center
16:59 42.7739 -79.7289 267° West 390 449 43,000  Level Cleveland Center
17:00 42.7664 -79.8733 266° West 385 443 43,000  Level Cleveland Center
17:01 42.7567 -80.0008 264° West 385 443 43,000  Level Cleveland Center
17:02 42.7511 -80.1478 267° West 390 449 43,000  Level Cleveland Center
17:03 42.7433 -80.2919 266° West 390 449 43,000  Level Cleveland Center
17:04 42.7331 -80.4392 265° West 390 449 43,000  Level Cleveland Center
17:05 42.7269 -80.5803 267° West 384 442 43,000  Level Cleveland Center
17:06 42.7164 -80.7300 265° West 384 442 43,000  Level Cleveland Center
17:07 42.7078 -80.8828 266° West 384 442 43,000  Level Cleveland Center
17:08 42.7053 -81.0297 269° West 384 442 43,000  Level Cleveland Center
17:09 42.7006 -81.1736 267° West 382 440 43,000  Level Cleveland Center
17:10 42.6956 -81.3178 267° West 382 440 43,000  Level Cleveland Center
17:11 42.6922 -81.4644 268° West 387 445 43,000  Level Cleveland Center
17:12 42.6869 -81.6028 267° West 382 440 43,000  Level Cleveland Center
17:13 42.6836 -81.7497 268° West 388 447 43,000  Level Cleveland Center
17:14 42.6778 -81.8936 267° West 381 438 43,000  Level Cleveland Center
17:15 42.6719 -82.0375 267° West 381 438 43,000 -4,500 Level Cleveland Center
17:16 42.6678 -82.1842 268° West 381 438 34,000 -1,140 Descending Cleveland Center
17:17 42.6636 -82.3336 268° West 391 450 40,800 2,640 Climbing Cleveland Center
17:18 42.6569 -82.4889 267° West 404 465 39,300 -1,500 Descending Cleveland Center
17:19 42.6522 -82.6383 268° West 404 465 37,900 -1,500 Descending Cleveland Center
17:20 42.6453 -82.7906 267° West 404 465 36,400 -1,560 Descending Cleveland Center
17:21 42.6403 -82.9372 267° West 404 465 34,800 -1,560 Descending Cleveland Center
17:22 42.6331 -83.0894 266° West 404 465 33,300 -1,500 Descending Cleveland Center
17:23 42.6275 -83.2442 267° West 404 465 31,800 -1,500 Descending Cleveland Center
17:24 42.6214 -83.4078 267° West 412 474 30,400 -1,500 Descending Cleveland Center
17:25 42.6111 -83.5708 265° West 426 490 28,900 -1,500 Descending Cleveland Center
17:26 42.6025 -83.7369 266° West 439 505 27,400 -1,440 Descending Cleveland Center
17:27 42.5958 -83.8975 267° West 439 505 26,100 -720 Descending Cleveland Center
17:28 42.5869 -84.0606 266° West 439 505 26,000 -60 Descending Cleveland Center
17:29 42.5739 -84.3506 267° West 425 489 26,000  Level Chicago Center
17:30 42.5650 -84.5136 266° West 434 499 26,000  Level Chicago Center
17:32 42.5556 -84.6764 266° West 433 498 26,000  Level Chicago Center
17:33 42.5436 -84.8714 265° West 433 498 26,000  Level Chicago Center
17:34 42.5350 -85.0311 266° West 427 491 26,000  Level Chicago Center
17:35 42.5256 -85.1903 265° West 424 488 26,000  Level Chicago Center
17:36 42.5208 -85.3489 268° West 423 487 26,000  Level Chicago Center
17:37 42.5167 -85.5086 268° West 424 488 26,000 -420 Level Chicago Center
17:38 42.5111 -85.6678 267° West 421 484 25,200 -780 Descending Chicago Center
17:39 42.5067 -85.8292 268° West 426 490 24,400 -900 Descending Chicago Center
17:40 42.4994 -86.0153 267° West 414 476 23,400 -900 Descending Chicago Center
17:41 42.4939 -86.1692 267° West 408 470 22,600 -900 Descending Chicago Center
17:42 42.4881 -86.3242 267° West 410 472 21,600 -1,800 Descending Chicago Center
17:43 42.4828 -86.4644 267° West 377 434 19,000 -2,520 Descending Chicago Center
17:44 42.4778 -86.6056 267° West 375 432 16,400 -2,280 Descending Chicago Center
17:45 42.4747 -86.7336 268° West 342 394 14,300 -2,220 Descending Chicago Center
17:46 42.4694 -86.8447 266° West 301 346 11,800 -2,400 Descending Chicago Center
17:47 42.4633 -86.9733 266° West 286 329 9,400 -2,280 Descending Chicago Center
17:48 42.4583 -87.0786 266° West 282 325 7,200 -2,040 Descending Chicago Center
17:49 42.4550 -87.1861 268° West 285 328 5,200 -1,920 Descending Chicago Center
17:50 42.4481 -87.2853 265° West 272 313 3,300 -1,080 Descending Chicago Center
17:51 42.4453 -87.3828 268° West 272 313 3,000 -120 Descending Chicago Center
17:53 42.4333 -87.5667 265° West 267 307 3,000 -60 Level Chicago TRACON
17:54 42.4653 -87.6322 303° West 281 323 2,900 -60 Descending Chicago Center
17:55 42.4981 -87.6803 313° West 221 254 2,900 -60 Level Chicago Center
17:56 42.5181 -87.7467 292° West 204 235 2,800 -540 Descending Chicago Center
17:58 42.4333 -87.8333 217° Southwest 141 162 1,200 -780 Descending Chicago TRACON
18:00 42.4167 -87.8667 270° West  Level FlightAware Approximate
18:07 42.4222 -87.8679 270° West  Level Estimated